Terminal Aerodrome Forecast
Issued by NWS

Home | Current Version | Previous Version | Text Only | Print | Product List | Glossary On
Versions: 1 2 3 4 5 6 7 8 9 10 11 12 13 14 15 16 17 18 19 20 21 22 23 24 25 26 27
000
FTUS41 KGYX 310850 AAC
TAFRKD
TAF AMD
KRKD 310850Z 3109/0106 24004KT 1/2SM FG OVC002
     FM311000 25004KT 3SM BR SCT002
     FM311100 26005KT P6SM SKC
     FM311500 25010KT P6SM SKC
     FM010000 29003KT P6SM SKC
      AMD LTD TO CLD VIS AND WIND=

USA.gov is the U.S. government's official web portal to all federal, state and local government web resources and services.